sensor_id;sensor_type;location;lat;lon;timestamp;pressure;altitude;pressure_sealevel;temperature;humidity
19112;BME280;9688;51.906;8.376;2023-04-08T00:01:47;101331.91;;;7.24;72.30
19112;BME280;9688;51.906;8.376;2023-04-08T00:04:32;101327.56;;;7.22;71.96
19112;BME280;9688;51.906;8.376;2023-04-08T00:07:17;101331.06;;;7.22;72.67
19112;BME280;9688;51.906;8.376;2023-04-08T00:10:05;101330.22;;;7.19;71.99
19112;BME280;9688;51.906;8.376;2023-04-08T00:12:51;101341.63;;;7.18;72.16
19112;BME280;9688;51.906;8.376;2023-04-08T00:15:41;101333.78;;;7.16;72.40
19112;BME280;9688;51.906;8.376;2023-04-08T00:18:26;101340.78;;;7.15;72.28
19112;BME280;9688;51.906;8.376;2023-04-08T00:21:12;101332.03;;;7.15;71.87
19112;BME280;9688;51.906;8.376;2023-04-08T00:23:59;101330.28;;;7.14;72.74
19112;BME280;9688;51.906;8.376;2023-04-08T00:26:44;101331.16;;;7.16;71.73
19112;BME280;9688;51.906;8.376;2023-04-08T00:29:30;101329.34;;;7.20;72.36
19112;BME280;9688;51.906;8.376;2023-04-08T00:32:17;101327.56;;;7.22;72.20
19112;BME280;9688;51.906;8.376;2023-04-08T00:35:04;101330.09;;;7.28;72.11
19112;BME280;9688;51.906;8.376;2023-04-08T00:37:49;101331.88;;;7.29;72.19
19112;BME280;9688;51.906;8.376;2023-04-08T00:40:35;101335.34;;;7.29;71.82
19112;BME280;9688;51.906;8.376;2023-04-08T00:43:22;101336.19;;;7.33;72.11
19112;BME280;9688;51.906;8.376;2023-04-08T00:46:08;101330.91;;;7.34;72.11
19112;BME280;9688;51.906;8.376;2023-04-08T00:48:55;101328.22;;;7.37;71.80
19112;BME280;9688;51.906;8.376;2023-04-08T00:51:41;101341.38;;;7.37;71.70
19112;BME280;9688;51.906;8.376;2023-04-08T00:54:27;101340.56;;;7.32;71.34
19112;BME280;9688;51.906;8.376;2023-04-08T00:57:12;101346.78;;;7.27;71.57
19112;BME280;9688;51.906;8.376;2023-04-08T00:59:58;101333.72;;;7.21;72.30
19112;BME280;9688;51.906;8.376;2023-04-08T01:02:47;101338.13;;;7.17;72.09
19112;BME280;9688;51.906;8.376;2023-04-08T01:05:42;101342.59;;;7.10;72.27
19112;BME280;9688;51.906;8.376;2023-04-08T01:08:37;101349.69;;;7.05;72.10
19112;BME280;9688;51.906;8.376;2023-04-08T01:11:24;101345.34;;;7.01;72.43
19112;BME280;9688;51.906;8.376;2023-04-08T01:14:16;101348.03;;;6.97;73.06
19112;BME280;9688;51.906;8.376;2023-04-08T01:17:04;101346.31;;;6.96;73.16
19112;BME280;9688;51.906;8.376;2023-04-08T01:19:50;101355.00;;;6.99;73.09
19112;BME280;9688;51.906;8.376;2023-04-08T01:22:45;101351.47;;;7.00;72.99
19112;BME280;9688;51.906;8.376;2023-04-08T01:25:38;101351.41;;;7.06;72.67
19112;BME280;9688;51.906;8.376;2023-04-08T01:28:27;101351.34;;;7.11;72.92
19112;BME280;9688;51.906;8.376;2023-04-08T01:31:14;101349.59;;;7.13;72.63
19112;BME280;9688;51.906;8.376;2023-04-08T01:34:02;101342.56;;;7.15;73.33
19112;BME280;9688;51.906;8.376;2023-04-08T01:36:50;101351.22;;;7.20;72.48
19112;BME280;9688;51.906;8.376;2023-04-08T01:39:37;101355.56;;;7.24;72.72
19112;BME280;9688;51.906;8.376;2023-04-08T01:42:24;101354.63;;;7.28;72.96
19112;BME280;9688;51.906;8.376;2023-04-08T01:45:13;101350.22;;;7.30;72.99
19112;BME280;9688;51.906;8.376;2023-04-08T01:48:00;101358.94;;;7.34;72.47
19112;BME280;9688;51.906;8.376;2023-04-08T01:50:46;101353.69;;;7.34;73.22
19112;BME280;9688;51.906;8.376;2023-04-08T01:53:34;101351.94;;;7.34;73.08
19112;BME280;9688;51.906;8.376;2023-04-08T01:56:21;101358.03;;;7.36;73.00
19112;BME280;9688;51.906;8.376;2023-04-08T01:59:09;101355.41;;;7.38;73.12
19112;BME280;9688;51.906;8.376;2023-04-08T02:01:58;101349.28;;;7.36;72.64
19112;BME280;9688;51.906;8.376;2023-04-08T02:04:45;101345.84;;;7.32;73.37
19112;BME280;9688;51.906;8.376;2023-04-08T02:07:31;101351.09;;;7.31;73.15
19112;BME280;9688;51.906;8.376;2023-04-08T02:10:17;101347.56;;;7.33;73.07
19112;BME280;9688;51.906;8.376;2023-04-08T02:13:04;101357.22;;;7.33;72.83
19112;BME280;9688;51.906;8.376;2023-04-08T02:15:54;101357.25;;;7.28;73.31
19112;BME280;9688;51.906;8.376;2023-04-08T02:18:45;101358.22;;;7.24;73.90
19112;BME280;9688;51.906;8.376;2023-04-08T02:21:39;101352.13;;;7.21;73.84
19112;BME280;9688;51.906;8.376;2023-04-08T02:24:28;101357.31;;;7.25;74.01
19112;BME280;9688;51.906;8.376;2023-04-08T02:27:16;101358.22;;;7.24;73.84
19112;BME280;9688;51.906;8.376;2023-04-08T02:30:07;101354.72;;;7.24;73.76
19112;BME280;9688;51.906;8.376;2023-04-08T02:32:55;101348.56;;;7.26;74.14
19112;BME280;9688;51.906;8.376;2023-04-08T02:35:44;101346.75;;;7.30;73.89
19112;BME280;9688;51.906;8.376;2023-04-08T02:38:29;101349.31;;;7.31;73.79
19112;BME280;9688;51.906;8.376;2023-04-08T02:41:15;101349.38;;;7.30;74.18
19112;BME280;9688;51.906;8.376;2023-04-08T02:44:00;101352.84;;;7.32;73.72
19112;BME280;9688;51.906;8.376;2023-04-08T02:46:46;101351.06;;;7.34;74.18
19112;BME280;9688;51.906;8.376;2023-04-08T02:49:32;101348.41;;;7.34;73.98
19112;BME280;9688;51.906;8.376;2023-04-08T02:52:19;101349.31;;;7.34;74.37
19112;BME280;9688;51.906;8.376;2023-04-08T02:55:06;101354.50;;;7.39;73.78
19112;BME280;9688;51.906;8.376;2023-04-08T02:57:53;101366.72;;;7.43;73.98
19112;BME280;9688;51.906;8.376;2023-04-08T03:00:38;101364.97;;;7.44;74.10
19112;BME280;9688;51.906;8.376;2023-04-08T03:03:24;101369.28;;;7.49;74.28
19112;BME280;9688;51.906;8.376;2023-04-08T03:06:12;101371.81;;;7.55;74.16
19112;BME280;9688;51.906;8.376;2023-04-08T03:08:59;101378.75;;;7.61;74.20
19112;BME280;9688;51.906;8.376;2023-04-08T03:11:44;101381.38;;;7.61;74.45
19112;BME280;9688;51.906;8.376;2023-04-08T03:14:35;101378.75;;;7.63;74.27
19112;BME280;9688;51.906;8.376;2023-04-08T03:17:21;101372.63;;;7.62;74.51
19112;BME280;9688;51.906;8.376;2023-04-08T03:20:07;101376.16;;;7.59;74.57
19112;BME280;9688;51.906;8.376;2023-04-08T03:22:53;101377.13;;;7.54;74.85
19112;BME280;9688;51.906;8.376;2023-04-08T03:25:40;101371.88;;;7.51;75.49
19112;BME280;9688;51.906;8.376;2023-04-08T03:28:26;101365.69;;;7.55;75.72
19112;BME280;9688;51.906;8.376;2023-04-08T03:31:11;101370.00;;;7.59;75.28
19112;BME280;9688;51.906;8.376;2023-04-08T03:33:57;101368.25;;;7.59;75.71
19112;BME280;9688;51.906;8.376;2023-04-08T03:36:43;101376.97;;;7.63;75.47
19112;BME280;9688;51.906;8.376;2023-04-08T03:39:29;101376.13;;;7.63;75.63
19112;BME280;9688;51.906;8.376;2023-04-08T03:42:16;101376.13;;;7.63;76.13
19112;BME280;9688;51.906;8.376;2023-04-08T03:45:03;101379.56;;;7.66;76.13
19112;BME280;9688;51.906;8.376;2023-04-08T03:47:49;101380.41;;;7.68;76.21
19112;BME280;9688;51.906;8.376;2023-04-08T03:50:35;101377.78;;;7.67;76.38
19112;BME280;9688;51.906;8.376;2023-04-08T03:53:21;101376.94;;;7.66;76.89
19112;BME280;9688;51.906;8.376;2023-04-08T03:56:07;101385.63;;;7.70;76.94
19112;BME280;9688;51.906;8.376;2023-04-08T03:58:54;101383.00;;;7.70;76.96
19112;BME280;9688;51.906;8.376;2023-04-08T04:01:40;101385.59;;;7.73;77.04
19112;BME280;9688;51.906;8.376;2023-04-08T04:04:26;101396.06;;;7.79;77.24
19112;BME280;9688;51.906;8.376;2023-04-08T04:07:12;101396.94;;;7.78;78.09
19112;BME280;9688;51.906;8.376;2023-04-08T04:09:57;101391.59;;;7.82;78.40
19112;BME280;9688;51.906;8.376;2023-04-08T04:12:43;101389.03;;;7.78;78.69
19112;BME280;9688;51.906;8.376;2023-04-08T04:15:31;101391.78;;;7.70;79.65
19112;BME280;9688;51.906;8.376;2023-04-08T04:18:17;101399.75;;;7.66;80.21
19112;BME280;9688;51.906;8.376;2023-04-08T04:21:04;101388.41;;;7.62;80.47
19112;BME280;9688;51.906;8.376;2023-04-08T04:23:50;101399.69;;;7.69;80.93
19112;BME280;9688;51.906;8.376;2023-04-08T04:26:35;101394.41;;;7.72;80.79
19112;BME280;9688;51.906;8.376;2023-04-08T04:29:20;101394.34;;;7.76;81.33
19112;BME280;9688;51.906;8.376;2023-04-08T04:32:07;101392.63;;;7.72;81.90
19112;BME280;9688;51.906;8.376;2023-04-08T04:34:53;101396.16;;;7.70;82.20
19112;BME280;9688;51.906;8.376;2023-04-08T04:37:39;101396.25;;;7.65;82.45
19112;BME280;9688;51.906;8.376;2023-04-08T04:40:25;101402.44;;;7.61;82.75
19112;BME280;9688;51.906;8.376;2023-04-08T04:43:11;101391.91;;;7.61;82.83
19112;BME280;9688;51.906;8.376;2023-04-08T04:45:56;101407.69;;;7.61;82.97
19112;BME280;9688;51.906;8.376;2023-04-08T04:48:43;101405.94;;;7.62;83.30
19112;BME280;9688;51.906;8.376;2023-04-08T04:51:30;101402.47;;;7.59;83.29
19112;BME280;9688;51.906;8.376;2023-04-08T04:54:16;101402.47;;;7.59;83.89
19112;BME280;9688;51.906;8.376;2023-04-08T04:57:01;101406.84;;;7.60;84.07
19112;BME280;9688;51.906;8.376;2023-04-08T04:59:47;101406.81;;;7.62;84.42
19112;BME280;9688;51.906;8.376;2023-04-08T05:02:33;101400.63;;;7.65;83.97
19112;BME280;9688;51.906;8.376;2023-04-08T05:05:20;101400.56;;;7.69;84.31
19112;BME280;9688;51.906;8.376;2023-04-08T05:08:05;101402.28;;;7.73;84.50
19112;BME280;9688;51.906;8.376;2023-04-08T05:10:51;101402.28;;;7.73;84.31
19112;BME280;9688;51.906;8.376;2023-04-08T05:13:38;101419.81;;;7.74;84.67
19112;BME280;9688;51.906;8.376;2023-04-08T05:16:24;101424.16;;;7.77;84.61
19112;BME280;9688;51.906;8.376;2023-04-08T05:19:10;101419.75;;;7.76;84.62
19112;BME280;9688;51.906;8.376;2023-04-08T05:21:57;101416.31;;;7.74;85.22
19112;BME280;9688;51.906;8.376;2023-04-08T05:24:43;101427.75;;;7.70;85.15
19112;BME280;9688;51.906;8.376;2023-04-08T05:27:29;101431.22;;;7.73;85.50
19112;BME280;9688;51.906;8.376;2023-04-08T05:30:15;101433.69;;;7.84;85.55
19112;BME280;9688;51.906;8.376;2023-04-08T05:33:02;101435.44;;;7.85;85.02
19112;BME280;9688;51.906;8.376;2023-04-08T05:35:47;101443.25;;;7.93;85.39
19112;BME280;9688;51.906;8.376;2023-04-08T05:38:34;101445.88;;;7.93;85.28
19112;BME280;9688;51.906;8.376;2023-04-08T05:41:20;101441.53;;;7.90;85.61
19112;BME280;9688;51.906;8.376;2023-04-08T05:44:05;101444.94;;;7.97;85.67
19112;BME280;9688;51.906;8.376;2023-04-08T05:46:51;101443.97;;;8.02;85.46
19112;BME280;9688;51.906;8.376;2023-04-08T05:49:37;101437.78;;;8.03;85.68
19112;BME280;9688;51.906;8.376;2023-04-08T05:52:23;101445.63;;;8.10;85.31
19112;BME280;9688;51.906;8.376;2023-04-08T05:55:11;101452.72;;;8.03;85.82
19112;BME280;9688;51.906;8.376;2023-04-08T05:57:57;101459.88;;;7.95;86.09
19112;BME280;9688;51.906;8.376;2023-04-08T06:00:42;101454.72;;;7.87;87.09
19112;BME280;9688;51.906;8.376;2023-04-08T06:03:29;101461.00;;;7.75;86.95
19112;BME280;9688;51.906;8.376;2023-04-08T06:06:15;101475.97;;;7.73;87.18
19112;BME280;9688;51.906;8.376;2023-04-08T06:09:00;101470.72;;;7.73;87.78
19112;BME280;9688;51.906;8.376;2023-04-08T06:11:47;101474.16;;;7.77;86.95
19112;BME280;9688;51.906;8.376;2023-04-08T06:14:34;101474.16;;;7.77;86.81
19112;BME280;9688;51.906;8.376;2023-04-08T06:17:20;101465.44;;;7.70;87.83
19112;BME280;9688;51.906;8.376;2023-04-08T06:20:07;101462.81;;;7.72;87.44
19112;BME280;9688;51.906;8.376;2023-04-08T06:22:53;101479.47;;;7.72;87.72
19112;BME280;9688;51.906;8.376;2023-04-08T06:25:39;101483.78;;;7.79;87.46
19112;BME280;9688;51.906;8.376;2023-04-08T06:28:28;101487.19;;;7.86;87.37
19112;BME280;9688;51.906;8.376;2023-04-08T06:31:13;101490.63;;;7.93;87.37
19112;BME280;9688;51.906;8.376;2023-04-08T06:33:59;101497.75;;;7.83;87.57
19112;BME280;9688;51.906;8.376;2023-04-08T06:36:44;101499.50;;;7.84;87.85
19112;BME280;9688;51.906;8.376;2023-04-08T06:39:30;101499.53;;;7.82;87.71
19112;BME280;9688;51.906;8.376;2023-04-08T06:42:15;101510.09;;;7.79;87.99
19112;BME280;9688;51.906;8.376;2023-04-08T06:45:03;101504.75;;;7.84;88.00
19112;BME280;9688;51.906;8.376;2023-04-08T06:47:49;101512.56;;;7.93;87.84
19112;BME280;9688;51.906;8.376;2023-04-08T06:50:35;101516.09;;;7.91;87.85
19112;BME280;9688;51.906;8.376;2023-04-08T06:53:21;101513.59;;;7.81;88.06
19112;BME280;9688;51.906;8.376;2023-04-08T06:56:09;101517.13;;;7.76;88.58
19112;BME280;9688;51.906;8.376;2023-04-08T06:58:57;101518.88;;;7.80;88.55
19112;BME280;9688;51.906;8.376;2023-04-08T07:01:45;101523.22;;;7.82;88.13
19112;BME280;9688;51.906;8.376;2023-04-08T07:04:31;101531.97;;;7.85;88.34
19112;BME280;9688;51.906;8.376;2023-04-08T07:07:19;101538.94;;;7.89;88.70
19112;BME280;9688;51.906;8.376;2023-04-08T07:10:09;101533.75;;;7.82;88.39
19112;BME280;9688;51.906;8.376;2023-04-08T07:12:56;101546.09;;;7.77;88.65
19112;BME280;9688;51.906;8.376;2023-04-08T07:15:41;101550.53;;;7.72;88.84
19112;BME280;9688;51.906;8.376;2023-04-08T07:18:28;101548.72;;;7.79;88.87
19112;BME280;9688;51.906;8.376;2023-04-08T07:21:13;101541.59;;;7.86;88.86
19112;BME280;9688;51.906;8.376;2023-04-08T07:24:01;101545.97;;;7.88;88.51
19112;BME280;9688;51.906;8.376;2023-04-08T07:26:48;101547.72;;;7.86;88.71
19112;BME280;9688;51.906;8.376;2023-04-08T07:29:33;101552.13;;;7.87;88.73
19112;BME280;9688;51.906;8.376;2023-04-08T07:32:19;101552.94;;;7.91;88.57
19112;BME280;9688;51.906;8.376;2023-04-08T07:35:07;101551.13;;;7.94;88.75
19112;BME280;9688;51.906;8.376;2023-04-08T07:37:53;101557.22;;;7.98;88.92
19112;BME280;9688;51.906;8.376;2023-04-08T07:40:41;101547.53;;;8.03;88.60
19112;BME280;9688;51.906;8.376;2023-04-08T07:43:29;101551.84;;;8.09;88.22
19112;BME280;9688;51.906;8.376;2023-04-08T07:46:15;101557.94;;;8.12;87.77
19112;BME280;9688;51.906;8.376;2023-04-08T07:49:01;101564.94;;;8.13;87.66
19112;BME280;9688;51.906;8.376;2023-04-08T07:51:49;101563.94;;;8.22;87.63
19112;BME280;9688;51.906;8.376;2023-04-08T07:54:35;101568.25;;;8.27;87.33
19112;BME280;9688;51.906;8.376;2023-04-08T07:57:20;101562.94;;;8.31;87.19
19112;BME280;9688;51.906;8.376;2023-04-08T08:00:07;101571.72;;;8.33;87.05
19112;BME280;9688;51.906;8.376;2023-04-08T08:02:53;101563.75;;;8.39;86.64
19112;BME280;9688;51.906;8.376;2023-04-08T08:05:39;101562.69;;;8.52;87.04
19112;BME280;9688;51.906;8.376;2023-04-08T08:08:26;101568.56;;;8.69;86.23
19112;BME280;9688;51.906;8.376;2023-04-08T08:11:12;101581.66;;;8.76;85.72
19112;BME280;9688;51.906;8.376;2023-04-08T08:13:58;101577.16;;;8.81;85.95
19112;BME280;9688;51.906;8.376;2023-04-08T08:16:44;101581.34;;;8.96;85.00
19112;BME280;9688;51.906;8.376;2023-04-08T08:19:29;101584.81;;;8.98;84.71
19112;BME280;9688;51.906;8.376;2023-04-08T08:22:15;101588.34;;;8.98;85.15
19112;BME280;9688;51.906;8.376;2023-04-08T08:25:03;101589.97;;;9.05;84.46
19112;BME280;9688;51.906;8.376;2023-04-08T08:27:50;101587.19;;;9.14;83.94
19112;BME280;9688;51.906;8.376;2023-04-08T08:30:38;101588.63;;;9.34;83.96
19112;BME280;9688;51.906;8.376;2023-04-08T08:33:25;101588.19;;;9.57;83.62
19112;BME280;9688;51.906;8.376;2023-04-08T08:36:11;101585.94;;;9.82;82.36
19112;BME280;9688;51.906;8.376;2023-04-08T08:38:57;101593.66;;;9.93;82.68
19112;BME280;9688;51.906;8.376;2023-04-08T08:41:44;101582.09;;;9.98;81.40
19112;BME280;9688;51.906;8.376;2023-04-08T08:44:29;101589.91;;;10.04;82.28
19112;BME280;9688;51.906;8.376;2023-04-08T08:47:16;101584.41;;;10.14;82.20
19112;BME280;9688;51.906;8.376;2023-04-08T08:50:05;101589.34;;;10.32;81.63
19112;BME280;9688;51.906;8.376;2023-04-08T08:52:52;101589.50;;;10.65;80.14
19112;BME280;9688;51.906;8.376;2023-04-08T08:55:39;101605.44;;;10.62;80.19
19112;BME280;9688;51.906;8.376;2023-04-08T08:58:27;101597.03;;;10.43;80.83
19112;BME280;9688;51.906;8.376;2023-04-08T09:01:32;101597.25;;;10.34;81.41
19112;BME280;9688;51.906;8.376;2023-04-08T09:04:19;101606.16;;;10.26;80.11
19112;BME280;9688;51.906;8.376;2023-04-08T09:07:09;101602.91;;;10.14;81.24
19112;BME280;9688;51.906;8.376;2023-04-08T09:09:58;101608.19;;;10.14;81.39
19112;BME280;9688;51.906;8.376;2023-04-08T09:12:52;101616.13;;;10.14;81.70
19112;BME280;9688;51.906;8.376;2023-04-08T09:16:00;101609.72;;;10.27;80.87
19112;BME280;9688;51.906;8.376;2023-04-08T09:18:48;101613.91;;;10.37;80.49
19112;BME280;9688;51.906;8.376;2023-04-08T09:21:37;101611.06;;;10.46;80.52
19112;BME280;9688;51.906;8.376;2023-04-08T09:24:28;101608.25;;;10.54;79.88
19112;BME280;9688;51.906;8.376;2023-04-08T09:27:15;101603.75;;;10.58;80.67
19112;BME280;9688;51.906;8.376;2023-04-08T09:30:14;101612.38;;;10.66;79.75
19112;BME280;9688;51.906;8.376;2023-04-08T09:33:03;101612.03;;;10.81;79.49
19112;BME280;9688;51.906;8.376;2023-04-08T09:35:50;101611.47;;;11.04;79.18
19112;BME280;9688;51.906;8.376;2023-04-08T09:38:38;101613.19;;;11.07;79.26
19112;BME280;9688;51.906;8.376;2023-04-08T09:41:27;101619.78;;;10.89;80.03
19112;BME280;9688;51.906;8.376;2023-04-08T09:44:15;101621.94;;;10.73;79.32
19112;BME280;9688;51.906;8.376;2023-04-08T09:47:07;101618.38;;;10.74;80.39
19112;BME280;9688;51.906;8.376;2023-04-08T09:50:00;101618.72;;;10.98;78.89
19112;BME280;9688;51.906;8.376;2023-04-08T09:52:52;101621.75;;;11.16;78.67
19112;BME280;9688;51.906;8.376;2023-04-08T09:55:42;101617.78;;;11.34;78.42
19112;BME280;9688;51.906;8.376;2023-04-08T09:58:37;101622.25;;;11.32;77.97
19112;BME280;9688;51.906;8.376;2023-04-08T10:01:27;101611.38;;;11.43;78.34
19112;BME280;9688;51.906;8.376;2023-04-08T10:04:19;101615.97;;;11.69;77.92
19112;BME280;9688;51.906;8.376;2023-04-08T10:07:07;101609.34;;;11.87;77.66
19112;BME280;9688;51.906;8.376;2023-04-08T10:09:54;101614.69;;;11.86;77.66
19112;BME280;9688;51.906;8.376;2023-04-08T10:12:42;101613.00;;;11.81;77.89
19112;BME280;9688;51.906;8.376;2023-04-08T10:15:32;101620.88;;;11.86;77.81
19112;BME280;9688;51.906;8.376;2023-04-08T10:18:29;101625.69;;;11.69;78.12
19112;BME280;9688;51.906;8.376;2023-04-08T10:21:33;101625.75;;;11.67;77.51
19112;BME280;9688;51.906;8.376;2023-04-08T10:24:21;101619.59;;;11.67;77.75
19112;BME280;9688;51.906;8.376;2023-04-08T10:27:37;101616.53;;;11.82;77.61
19112;BME280;9688;51.906;8.376;2023-04-08T10:30:39;101621.66;;;11.90;78.12
19112;BME280;9688;51.906;8.376;2023-04-08T10:33:31;101620.69;;;11.92;77.67
19112;BME280;9688;51.906;8.376;2023-04-08T10:36:17;101628.50;;;11.97;76.98
19112;BME280;9688;51.906;8.376;2023-04-08T10:39:03;101630.28;;;11.96;77.65
19112;BME280;9688;51.906;8.376;2023-04-08T10:41:50;101637.09;;;12.05;77.37
19112;BME280;9688;51.906;8.376;2023-04-08T10:44:36;101638.03;;;12.04;77.26
19112;BME280;9688;51.906;8.376;2023-04-08T10:47:25;101640.78;;;11.99;76.99
19112;BME280;9688;51.906;8.376;2023-04-08T10:50:15;101633.59;;;12.04;77.77
19112;BME280;9688;51.906;8.376;2023-04-08T10:53:02;101630.41;;;12.23;77.53
19112;BME280;9688;51.906;8.376;2023-04-08T10:55:50;101633.66;;;12.33;76.89
19112;BME280;9688;51.906;8.376;2023-04-08T10:58:47;101634.50;;;12.35;76.75
19112;BME280;9688;51.906;8.376;2023-04-08T11:01:38;101626.13;;;12.48;76.70
19112;BME280;9688;51.906;8.376;2023-04-08T11:04:26;101632.59;;;12.68;76.33
19112;BME280;9688;51.906;8.376;2023-04-08T11:07:11;101628.78;;;12.77;76.14
19112;BME280;9688;51.906;8.376;2023-04-08T11:10:06;101629.56;;;12.80;75.50
19112;BME280;9688;51.906;8.376;2023-04-08T11:12:53;101633.66;;;12.90;75.52
19112;BME280;9688;51.906;8.376;2023-04-08T11:15:42;101638.50;;;13.06;74.68
19112;BME280;9688;51.906;8.376;2023-04-08T11:18:28;101630.63;;;13.03;75.19
19112;BME280;9688;51.906;8.376;2023-04-08T11:21:16;101630.34;;;13.10;74.73
19112;BME280;9688;51.906;8.376;2023-04-08T11:24:06;101624.91;;;13.15;74.47
19112;BME280;9688;51.906;8.376;2023-04-08T11:26:53;101627.25;;;13.26;74.56
19112;BME280;9688;51.906;8.376;2023-04-08T11:29:40;101626.34;;;13.52;73.83
19112;BME280;9688;51.906;8.376;2023-04-08T11:32:31;101630.28;;;13.67;73.35
19112;BME280;9688;51.906;8.376;2023-04-08T11:35:17;101625.00;;;13.65;73.23
19112;BME280;9688;51.906;8.376;2023-04-08T11:38:04;101618.97;;;13.60;73.33
19112;BME280;9688;51.906;8.376;2023-04-08T11:40:53;101620.63;;;13.64;73.16
19112;BME280;9688;51.906;8.376;2023-04-08T11:43:50;101619.47;;;13.71;72.91
19112;BME280;9688;51.906;8.376;2023-04-08T11:46:38;101623.59;;;13.80;72.75
19112;BME280;9688;51.906;8.376;2023-04-08T11:49:43;101626.09;;;13.59;72.79
19112;BME280;9688;51.906;8.376;2023-04-08T11:52:44;101634.31;;;13.25;73.84
19112;BME280;9688;51.906;8.376;2023-04-08T11:55:33;101638.50;;;13.06;74.58
19112;BME280;9688;51.906;8.376;2023-04-08T11:58:19;101633.31;;;13.01;74.42
19112;BME280;9688;51.906;8.376;2023-04-08T12:01:06;101630.16;;;12.90;74.66
19112;BME280;9688;51.906;8.376;2023-04-08T12:03:57;101639.31;;;12.80;74.99
19112;BME280;9688;51.906;8.376;2023-04-08T12:06:44;101636.59;;;12.53;75.17
19112;BME280;9688;51.906;8.376;2023-04-08T12:09:33;101639.34;;;12.20;76.59
19112;BME280;9688;51.906;8.376;2023-04-08T12:12:19;101644.81;;;12.14;76.98
19112;BME280;9688;51.906;8.376;2023-04-08T12:15:06;101637.44;;;12.24;77.11
19112;BME280;9688;51.906;8.376;2023-04-08T12:17:53;101639.06;;;12.30;76.62
19112;BME280;9688;51.906;8.376;2023-04-08T12:20:39;101644.50;;;12.25;77.29
19112;BME280;9688;51.906;8.376;2023-04-08T12:23:26;101638.19;;;12.29;76.49
19112;BME280;9688;51.906;8.376;2023-04-08T12:26:11;101648.25;;;12.18;76.24
19112;BME280;9688;51.906;8.376;2023-04-08T12:28:57;101648.06;;;11.93;77.79
19112;BME280;9688;51.906;8.376;2023-04-08T12:31:43;101641.31;;;11.79;77.42
19112;BME280;9688;51.906;8.376;2023-04-08T12:34:28;101637.03;;;11.75;77.64
19112;BME280;9688;51.906;8.376;2023-04-08T12:37:14;101638.53;;;11.86;77.30
19112;BME280;9688;51.906;8.376;2023-04-08T12:40:08;101634.63;;;11.99;78.11
19112;BME280;9688;51.906;8.376;2023-04-08T12:42:54;101638.78;;;12.09;77.53
19112;BME280;9688;51.906;8.376;2023-04-08T12:45:41;101645.06;;;12.05;77.07
19112;BME280;9688;51.906;8.376;2023-04-08T12:48:27;101644.66;;;12.19;76.74
19112;BME280;9688;51.906;8.376;2023-04-08T12:51:13;101649.53;;;12.34;76.49
19112;BME280;9688;51.906;8.376;2023-04-08T12:53:59;101645.63;;;12.47;76.27
19112;BME280;9688;51.906;8.376;2023-04-08T12:56:47;101656.25;;;12.76;76.16
19112;BME280;9688;51.906;8.376;2023-04-08T12:59:33;101651.19;;;12.66;75.61
19112;BME280;9688;51.906;8.376;2023-04-08T13:02:19;101647.66;;;12.67;76.48
19112;BME280;9688;51.906;8.376;2023-04-08T13:05:06;101640.69;;;12.63;75.95
19112;BME280;9688;51.906;8.376;2023-04-08T13:07:53;101644.94;;;12.69;76.67
19112;BME280;9688;51.906;8.376;2023-04-08T13:10:40;101651.78;;;12.78;76.07
19112;BME280;9688;51.906;8.376;2023-04-08T13:13:29;101646.81;;;12.93;75.63
19112;BME280;9688;51.906;8.376;2023-04-08T13:16:15;101651.91;;;13.01;75.39
19112;BME280;9688;51.906;8.376;2023-04-08T13:19:00;101652.00;;;12.98;75.72
19112;BME280;9688;51.906;8.376;2023-04-08T13:21:46;101657.34;;;12.97;75.28
19112;BME280;9688;51.906;8.376;2023-04-08T13:24:32;101657.88;;;12.80;75.35
19112;BME280;9688;51.906;8.376;2023-04-08T13:27:18;101654.44;;;12.48;76.96
19112;BME280;9688;51.906;8.376;2023-04-08T13:30:08;101648.81;;;12.27;76.58
19112;BME280;9688;51.906;8.376;2023-04-08T13:32:55;101647.78;;;12.33;77.29
19112;BME280;9688;51.906;8.376;2023-04-08T13:35:40;101652.38;;;12.28;76.95
19112;BME280;9688;51.906;8.376;2023-04-08T13:38:26;101656.16;;;12.19;77.51
19112;BME280;9688;51.906;8.376;2023-04-08T13:41:12;101652.28;;;12.31;78.01
19112;BME280;9688;51.906;8.376;2023-04-08T13:43:58;101655.06;;;12.26;77.55
19112;BME280;9688;51.906;8.376;2023-04-08T13:46:48;101648.41;;;12.12;77.56
19112;BME280;9688;51.906;8.376;2023-04-08T13:49:34;101646.94;;;12.01;78.36
19112;BME280;9688;51.906;8.376;2023-04-08T13:52:21;101650.41;;;12.03;78.78
19112;BME280;9688;51.906;8.376;2023-04-08T13:55:08;101645.03;;;12.07;78.48
19112;BME280;9688;51.906;8.376;2023-04-08T13:57:55;101641.34;;;12.11;78.64
19112;BME280;9688;51.906;8.376;2023-04-08T14:00:42;101649.66;;;11.98;78.82
19112;BME280;9688;51.906;8.376;2023-04-08T14:03:29;101649.75;;;11.95;78.98
19112;BME280;9688;51.906;8.376;2023-04-08T14:06:15;101648.84;;;11.96;79.20
19112;BME280;9688;51.906;8.376;2023-04-08T14:09:04;101650.88;;;11.87;79.99
19112;BME280;9688;51.906;8.376;2023-04-08T14:11:50;101643.19;;;11.76;80.19
19112;BME280;9688;51.906;8.376;2023-04-08T14:14:36;101637.16;;;11.69;79.50
19112;BME280;9688;51.906;8.376;2023-04-08T14:17:21;101628.41;;;11.67;80.29
19112;BME280;9688;51.906;8.376;2023-04-08T14:20:09;101628.50;;;11.64;79.57
19112;BME280;9688;51.906;8.376;2023-04-08T14:22:55;101636.56;;;11.59;80.28
19112;BME280;9688;51.906;8.376;2023-04-08T14:25:41;101641.09;;;11.54;80.75
19112;BME280;9688;51.906;8.376;2023-04-08T14:28:27;101633.13;;;11.56;80.50
19112;BME280;9688;51.906;8.376;2023-04-08T14:31:15;101639.13;;;11.63;79.93
19112;BME280;9688;51.906;8.376;2023-04-08T14:34:03;101632.75;;;11.70;80.49
19112;BME280;9688;51.906;8.376;2023-04-08T14:36:50;101633.38;;;11.79;79.55
19112;BME280;9688;51.906;8.376;2023-04-08T14:39:37;101644.88;;;11.78;80.35
19112;BME280;9688;51.906;8.376;2023-04-08T14:42:27;101638.78;;;11.75;80.51
19112;BME280;9688;51.906;8.376;2023-04-08T14:45:17;101639.50;;;11.81;80.12
19112;BME280;9688;51.906;8.376;2023-04-08T14:48:05;101633.03;;;11.93;79.45
19112;BME280;9688;51.906;8.376;2023-04-08T14:50:53;101629.31;;;12.00;79.37
19112;BME280;9688;51.906;8.376;2023-04-08T14:53:42;101629.03;;;12.10;80.26
19112;BME280;9688;51.906;8.376;2023-04-08T14:56:28;101628.63;;;12.23;79.38